TimeMDT,TemperatureF,Dew PointF,Humidity,Sea Level PressureIn,VisibilityMPH,Wind Direction,Wind SpeedMPH,Gust SpeedMPH,PrecipitationIn,Events,Conditions,WindDirDegrees,DateUTC
12:53 AM,45.0,35.1,68,30.23,10.0,NE,5.8,-,N/A,,Clear,50,2013-06-01 06:53:00
1:53 AM,44.1,35.1,71,30.24,10.0,ENE,6.9,-,N/A,,Clear,60,2013-06-01 07:53:00
2:53 AM,41.0,35.1,79,30.24,10.0,NE,5.8,-,N/A,,Clear,40,2013-06-01 08:53:00
3:53 AM,39.9,34.0,79,30.25,10.0,NE,8.1,-,N/A,,Clear,50,2013-06-01 09:53:00
4:53 AM,37.9,33.1,83,30.24,10.0,ENE,6.9,-,N/A,,Clear,60,2013-06-01 10:53:00
5:53 AM,36.0,32.0,86,30.24,10.0,NE,3.5,-,N/A,,Clear,40,2013-06-01 11:53:00
6:53 AM,39.0,33.1,79,30.24,10.0,NNE,6.9,-,N/A,,Clear,30,2013-06-01 12:53:00
7:53 AM,45.0,34.0,65,30.24,10.0,NNE,6.9,-,N/A,,Clear,30,2013-06-01 13:53:00
8:53 AM,50.0,35.1,57,30.23,10.0,ENE,8.1,-,N/A,,Clear,60,2013-06-01 14:53:00
9:53 AM,54.0,35.1,49,30.21,10.0,ENE,6.9,-,N/A,,Clear,60,2013-06-01 15:53:00
10:53 AM,57.0,27.0,32,30.20,10.0,Calm,Calm,-,N/A,,Clear,0,2013-06-01 16:53:00
11:53 AM,61.0,28.9,30,30.18,10.0,Calm,Calm,-,N/A,,Clear,0,2013-06-01 17:53:00
12:53 PM,63.0,28.9,28,30.17,10.0,Variable,3.5,-,N/A,,Clear,0,2013-06-01 18:53:00
1:53 PM,64.9,28.9,26,30.14,10.0,WNW,4.6,-,N/A,,Clear,300,2013-06-01 19:53:00
2:53 PM,66.9,30.0,25,30.12,10.0,WNW,4.6,-,N/A,,Clear,290,2013-06-01 20:53:00
3:53 PM,68.0,33.1,27,30.10,10.0,WSW,9.2,17.3,N/A,,Clear,240,2013-06-01 21:53:00
4:53 PM,69.1,30.0,23,30.08,10.0,South,9.2,-,N/A,,Clear,190,2013-06-01 22:53:00
5:53 PM,68.0,28.9,23,30.06,10.0,Calm,Calm,-,N/A,,Clear,0,2013-06-01 23:53:00
6:53 PM,69.1,26.1,20,30.03,10.0,SW,8.1,-,N/A,,Clear,220,2013-06-02 00:53:00
7:53 PM,66.9,25.0,21,30.00,10.0,Calm,Calm,-,N/A,,Clear,0,2013-06-02 01:53:00
8:53 PM,64.9,28.9,26,29.99,10.0,Calm,Calm,-,N/A,,Clear,0,2013-06-02 02:53:00
9:53 PM,61.0,33.1,35,29.98,10.0,East,3.5,-,N/A,,Clear,90,2013-06-02 03:53:00
10:53 PM,54.0,37.0,53,29.99,10.0,Calm,Calm,-,N/A,,Clear,0,2013-06-02 04:53:00
11:53 PM,50.0,39.9,68,29.98,10.0,Calm,Calm,-,N/A,,Clear,0,2013-06-02 05:53:00